Time;durP1;ratioP1;P1;durP2;ratioP2;P2;SDS_P1;SDS_P2;PMS_P1;PMS_P2;Temp;Humidity;BMP_temperature;BMP_pressure;BME280_temperature;BME280_humidity;BME280_pressure;Samples;Min_cycle;Max_cycle;Signal;HPM_P1;HPM_P2
2021/11/02 00:00:33;;;;;;;3.78;2.20;;;10.10;99.90;;;;;;5034983;28;20215;-71
2021/11/02 00:03:00;;;;;;;4.03;2.92;;;10.10;99.90;;;;;;5035752;28;20303;-71
2021/11/02 00:05:28;;;;;;;6.82;3.28;;;10.10;99.90;;;;;;5033006;28;20205;-71
2021/11/02 00:07:56;;;;;;;10.13;3.40;;;10.10;99.90;;;;;;5034632;28;20200;-72
2021/11/02 00:10:25;;;;;;;6.03;3.03;;;10.10;99.90;;;;;;5034617;28;20211;-71
2021/11/02 00:12:52;;;;;;;5.10;4.43;;;10.00;99.90;;;;;;5034571;28;20315;-72
2021/11/02 00:15:23;;;;;;;3.08;2.25;;;10.00;99.90;;;;;;5038580;28;20678;-71
2021/11/02 00:17:53;;;;;;;3.80;2.58;;;9.90;99.90;;;;;;5033159;28;20239;-71
2021/11/02 00:20:21;;;;;;;4.75;2.55;;;9.80;99.90;;;;;;5029891;28;20204;-70
2021/11/02 00:22:54;;;;;;;6.80;3.25;;;9.70;99.90;;;;;;5034151;28;20227;-72
2021/11/02 00:25:22;;;;;;;7.07;3.20;;;9.60;99.90;;;;;;5033272;28;20679;-71
2021/11/02 00:27:51;;;;;;;7.00;3.63;;;9.60;99.90;;;;;;5034409;28;20726;-72
2021/11/02 00:30:21;;;;;;;7.82;3.42;;;9.50;99.90;;;;;;5032588;28;20200;-72
2021/11/02 00:32:51;;;;;;;3.83;2.95;;;9.50;99.90;;;;;;5023589;28;20255;-72
2021/11/02 00:35:19;;;;;;;4.47;3.13;;;9.40;99.90;;;;;;5033380;28;20343;-72
2021/11/02 00:37:47;;;;;;;11.32;3.33;;;9.40;99.90;;;;;;5034595;28;20196;-72
2021/11/02 00:40:16;;;;;;;5.80;2.92;;;9.40;99.90;;;;;;5032281;28;20647;-71
2021/11/02 00:42:50;;;;;;;3.00;2.70;;;9.40;99.90;;;;;;5033800;28;20751;-72
2021/11/02 00:45:27;;;;;;;4.15;3.30;;;9.40;99.90;;;;;;5025348;28;20228;-71
2021/11/02 00:47:55;;;;;;;6.07;3.40;;;9.30;99.90;;;;;;5030511;28;20236;-72
2021/11/02 00:50:22;;;;;;;6.75;3.13;;;9.20;99.90;;;;;;5034796;28;20598;-71
2021/11/02 00:52:49;;;;;;;10.70;2.45;;;9.20;99.90;;;;;;5037550;28;20314;-72
2021/11/02 00:55:17;;;;;;;5.55;2.25;;;9.20;99.90;;;;;;5035573;28;20208;-71
2021/11/02 00:57:45;;;;;;;6.97;2.85;;;9.30;99.90;;;;;;5026268;28;20196;-72
2021/11/02 01:00:14;;;;;;;5.55;2.88;;;9.30;99.90;;;;;;5036762;28;20228;-71
2021/11/02 01:02:43;;;;;;;4.85;2.70;;;9.30;99.90;;;;;;5033672;28;20346;-71
2021/11/02 01:05:13;;;;;;;6.40;3.10;;;9.30;99.90;;;;;;5032840;28;20216;-71
2021/11/02 01:07:41;;;;;;;7.70;3.33;;;9.20;99.90;;;;;;5024330;28;20262;-71
2021/11/02 01:10:15;;;;;;;8.98;2.95;;;9.20;99.90;;;;;;5031884;28;20998;-72
2021/11/02 01:12:44;;;;;;;6.85;3.35;;;9.20;99.90;;;;;;5024797;28;20635;-72
2021/11/02 01:15:12;;;;;;;6.43;3.40;;;9.10;99.90;;;;;;5025086;28;20218;-71
2021/11/02 01:17:40;;;;;;;4.68;2.58;;;9.00;99.90;;;;;;5037276;28;20207;-72
2021/11/02 01:20:12;;;;;;;5.30;2.80;;;9.00;99.90;;;;;;5028378;28;20201;-71
2021/11/02 01:22:40;;;;;;;10.75;3.25;;;8.90;99.90;;;;;;5026370;28;20231;-70
2021/11/02 01:25:10;;;;;;;13.02;3.10;;;8.80;99.90;;;;;;5028244;28;20238;-69
2021/11/02 01:27:39;;;;;;;4.93;2.95;;;8.70;99.90;;;;;;5027064;28;20207;-70
2021/11/02 01:30:07;;;;;;;8.93;4.85;;;8.70;99.90;;;;;;5038162;28;20209;-69
2021/11/02 01:32:36;;;;;;;10.30;5.57;;;8.70;99.90;;;;;;5033544;28;20224;-71
2021/11/02 01:35:03;;;;;;;8.77;3.72;;;8.60;99.90;;;;;;5023906;28;20196;-72
2021/11/02 01:37:33;;;;;;;5.55;3.10;;;8.60;99.90;;;;;;5029180;28;20204;-71
2021/11/02 01:40:00;;;;;;;5.70;2.97;;;8.70;99.90;;;;;;5038691;28;20662;-72
2021/11/02 01:42:27;;;;;;;7.30;2.85;;;8.70;99.90;;;;;;5061233;28;20294;-71
2021/11/02 01:44:56;;;;;;;7.57;3.45;;;8.60;99.90;;;;;;5031622;28;20227;-71
2021/11/02 01:47:24;;;;;;;4.05;2.45;;;8.60;99.90;;;;;;5032355;28;20212;-71
2021/11/02 01:50:01;;;;;;;4.22;2.70;;;8.60;99.90;;;;;;5038012;28;20199;-71
2021/11/02 01:52:28;;;;;;;3.40;2.03;;;8.60;99.90;;;;;;5034037;28;20224;-71
2021/11/02 01:55:04;;;;;;;5.28;2.50;;;8.60;99.90;;;;;;5034001;28;20210;-71
2021/11/02 01:57:32;;;;;;;5.55;2.75;;;8.60;99.90;;;;;;5033865;28;20590;-71
2021/11/02 01:59:59;;;;;;;5.32;3.47;;;8.60;99.90;;;;;;5033899;28;20604;-72
2021/11/02 02:02:33;;;;;;;3.80;2.75;;;8.60;99.90;;;;;;5035466;28;20224;-71
2021/11/02 02:05:06;;;;;;;11.77;3.60;;;8.60;99.90;;;;;;5032770;28;20224;-72
2021/11/02 02:07:42;;;;;;;6.45;3.50;;;8.60;99.90;;;;;;5033950;28;20578;-72
2021/11/02 02:10:31;;;;;;;4.80;3.17;;;8.50;99.90;;;;;;5032748;28;20206;-72
2021/11/02 02:13:10;;;;;;;8.65;3.20;;;8.50;99.90;;;;;;5033818;28;20394;-71
2021/11/02 02:15:48;;;;;;;4.90;3.40;;;8.50;99.90;;;;;;5032080;28;20678;-72
2021/11/02 02:18:19;;;;;;;6.43;2.63;;;8.50;99.90;;;;;;5025886;28;20283;-72
2021/11/02 02:21:23;;;;;;;4.32;2.70;;;8.50;99.90;;;;;;5032463;28;20295;-71
2021/11/02 02:24:11;;;;;;;6.43;2.97;;;8.40;99.90;;;;;;4943298;28;20310;-71
2021/11/02 02:26:55;;;;;;;5.55;4.05;;;8.40;99.90;;;;;;5031532;28;20200;-71
2021/11/02 02:29:25;;;;;;;3.90;2.53;;;8.30;99.90;;;;;;5035494;28;20246;-71
2021/11/02 02:31:55;;;;;;;8.45;3.20;;;8.20;99.90;;;;;;5032783;28;20216;-71
2021/11/02 02:37:08;;;;;;;3.38;2.95;;;8.20;99.90;;;;;;5024377;28;20211;-71
2021/11/02 02:39:37;;;;;;;5.93;2.38;;;8.30;99.90;;;;;;5031877;28;20200;-71
2021/11/02 02:42:05;;;;;;;2.42;2.22;;;8.30;99.90;;;;;;5037157;28;20227;-71
2021/11/02 02:44:34;;;;;;;4.22;2.45;;;8.30;99.90;;;;;;5032350;28;20233;-71
2021/11/02 02:47:03;;;;;;;11.18;3.10;;;8.30;99.90;;;;;;5031405;28;20298;-71
2021/11/02 02:49:32;;;;;;;7.82;2.90;;;8.30;99.90;;;;;;5032447;28;20581;-71
2021/11/02 02:52:00;;;;;;;8.52;2.75;;;8.30;99.90;;;;;;5032307;28;20228;-71
2021/11/02 02:54:28;;;;;;;4.60;2.75;;;8.30;99.90;;;;;;5031496;28;20207;-72
2021/11/02 02:56:56;;;;;;;3.72;2.78;;;8.30;99.90;;;;;;5030531;28;20224;-72
2021/11/02 02:59:23;;;;;;;6.03;2.40;;;8.20;99.90;;;;;;5036402;28;20246;-71
2021/11/02 03:01:53;;;;;;;8.10;2.65;;;8.30;99.90;;;;;;5040685;28;20215;-71
2021/11/02 03:04:25;;;;;;;8.65;3.30;;;8.30;99.90;;;;;;5036009;28;20230;-72
2021/11/02 03:06:59;;;;;;;6.78;2.70;;;8.20;99.90;;;;;;5038417;28;20204;-72
2021/11/02 03:09:26;;;;;;;3.63;2.33;;;8.20;99.90;;;;;;5035415;28;20214;-72
2021/11/02 03:11:54;;;;;;;10.55;2.55;;;8.20;99.90;;;;;;5035832;28;20544;-72
2021/11/02 03:14:28;;;;;;;4.22;2.78;;;8.10;99.90;;;;;;5031412;28;20199;-72
2021/11/02 03:17:01;;;;;;;6.25;2.95;;;8.20;99.90;;;;;;5034194;28;20215;-72
2021/11/02 03:50:39;;;;;;;7.50;3.60;;;7.70;99.90;;;;;;5034472;28;20194;-71
2021/11/02 03:56:00;;;;;;;7.55;3.53;;;7.60;99.90;;;;;;5028784;28;20211;-71
2021/11/02 03:58:32;;;;;;;10.60;4.22;;;7.60;99.90;;;;;;5033841;28;20210;-72
2021/11/02 04:28:56;;;;;;;7.05;4.88;;;7.20;99.90;;;;;;5033994;28;20225;-71
2021/11/02 05:07:26;;;;;;;7.50;5.75;;;7.10;99.90;;;;;;5029637;28;20218;-71
2021/11/02 05:46:48;;;;;;;9.07;4.90;;;7.00;99.90;;;;;;5034003;28;20280;-71
2021/11/02 05:49:24;;;;;;;6.18;4.63;;;7.00;99.90;;;;;;5034742;28;20204;-72
2021/11/02 05:52:24;;;;;;;6.85;5.05;;;7.00;99.90;;;;;;5033804;28;20222;-72
2021/11/02 05:55:19;;;;;;;7.80;5.07;;;7.00;99.90;;;;;;5030926;28;20550;-70
2021/11/02 05:57:51;;;;;;;10.10;5.30;;;7.00;99.90;;;;;;5024279;28;20215;-72
2021/11/02 06:00:21;;;;;;;8.82;5.50;;;7.10;99.90;;;;;;5030097;28;20252;-71
2021/11/02 06:03:10;;;;;;;7.97;4.93;;;7.10;99.90;;;;;;5033240;28;20217;-71
2021/11/02 06:05:45;;;;;;;9.43;5.93;;;7.10;99.90;;;;;;5027992;28;20246;-70
2021/11/02 06:11:23;;;;;;;10.73;5.10;;;7.00;99.90;;;;;;5024898;28;20207;-71
2021/11/02 06:28:20;;;;;;;9.15;4.93;;;6.90;99.90;;;;;;5006222;28;20245;-70
2021/11/02 06:30:54;;;;;;;12.32;6.97;;;7.00;99.90;;;;;;5039405;28;20244;-71
2021/11/02 06:33:40;;;;;;;9.93;5.57;;;7.00;99.90;;;;;;5028304;28;20234;-71
2021/11/02 06:36:21;;;;;;;6.65;5.55;;;6.90;99.90;;;;;;5031136;28;20193;-71
2021/11/02 06:42:07;;;;;;;11.82;6.00;;;7.00;99.90;;;;;;5027742;28;20212;-72
2021/11/02 06:50:47;;;;;;;11.35;5.93;;;7.00;99.90;;;;;;4992305;28;20194;-72
2021/11/02 07:16:32;;;;;;;6.20;4.93;;;7.20;99.90;;;;;;5022850;28;20220;-75
2021/11/02 07:19:04;;;;;;;9.48;5.10;;;7.30;99.90;;;;;;5025140;28;20234;-75
2021/11/02 07:21:40;;;;;;;11.68;5.47;;;7.40;99.90;;;;;;5030652;28;20194;-72
2021/11/02 07:24:15;;;;;;;7.72;5.38;;;7.50;99.90;;;;;;5032048;28;20211;-73
2021/11/02 07:26:54;;;;;;;12.88;5.50;;;7.50;99.90;;;;;;5034083;28;20257;-72
2021/11/02 08:47:30;;;;;;;5.07;3.60;;;18.90;92.00;;;;;;5033520;28;20504;-75
2021/11/02 08:49:59;;;;;;;5.40;3.63;;;18.70;92.10;;;;;;5036586;28;20454;-74
2021/11/02 08:52:27;;;;;;;3.93;3.10;;;18.90;91.80;;;;;;5030074;28;20486;-74
2021/11/02 08:54:56;;;;;;;6.70;4.40;;;18.90;91.60;;;;;;5024815;28;20477;-75
2021/11/02 08:57:24;;;;;;;8.13;4.13;;;19.20;91.30;;;;;;5025232;28;20530;-75
2021/11/02 08:59:52;;;;;;;5.67;3.80;;;19.20;91.30;;;;;;5028002;28;20460;-75
2021/11/02 09:02:26;;;;;;;9.80;4.27;;;19.20;91.40;;;;;;5033758;28;21008;-74
2021/11/02 09:05:04;;;;;;;5.27;3.63;;;19.20;90.90;;;;;;5029346;28;20527;-74
2021/11/02 09:07:33;;;;;;;6.83;4.17;;;19.00;91.40;;;;;;5033225;28;20457;-74
2021/11/02 09:10:01;;;;;;;12.57;5.07;;;18.90;91.70;;;;;;5032459;28;20447;-74
2021/11/02 09:12:31;;;;;;;6.70;5.23;;;18.80;91.80;;;;;;5033382;28;20562;-73
2021/11/02 09:15:01;;;;;;;7.43;4.70;;;19.10;91.70;;;;;;5033787;28;20459;-73
2021/11/02 09:17:32;;;;;;;8.73;4.57;;;19.00;91.40;;;;;;5034650;28;20450;-73
2021/11/02 09:20:01;;;;;;;7.07;5.50;;;18.80;91.40;;;;;;5035705;28;20991;-74
2021/11/02 09:22:31;;;;;;;6.50;5.00;;;18.00;92.70;;;;;;5034949;28;20945;-73
2021/11/02 09:24:59;;;;;;;8.30;4.83;;;18.50;93.00;;;;;;5030239;28;20534;-74
2021/11/02 09:27:28;;;;;;;9.57;6.63;;;19.00;92.50;;;;;;5023428;28;20447;-74
2021/11/02 09:29:56;;;;;;;9.07;4.87;;;18.80;91.50;;;;;;5024706;28;20454;-75
2021/11/02 09:32:26;;;;;;;7.90;5.90;;;19.20;92.40;;;;;;5029157;28;20469;-74
2021/11/02 09:34:54;;;;;;;7.17;5.37;;;19.20;91.50;;;;;;5024262;28;20455;-73
2021/11/02 09:37:31;;;;;;;7.33;5.80;;;19.20;92.00;;;;;;5028691;28;20446;-74
2021/11/02 09:40:07;;;;;;;10.77;7.17;;;19.30;91.80;;;;;;5024114;28;20440;-73
2021/11/02 09:43:27;;;;;;;15.27;6.40;;;19.00;92.00;;;;;;5024004;28;20969;-74
2021/11/02 09:46:33;;;;;;;9.40;6.17;;;19.10;91.90;;;;;;5020564;28;20475;-74
2021/11/02 09:49:27;;;;;;;9.07;5.93;;;19.20;92.10;;;;;;5026235;28;20957;-72
2021/11/02 09:52:18;;;;;;;8.00;5.77;;;19.30;91.90;;;;;;5021479;28;20449;-73
2021/11/02 09:55:21;;;;;;;10.73;7.40;;;19.20;91.70;;;;;;5024259;28;20463;-74
2021/11/02 09:58:14;;;;;;;10.77;7.57;;;19.00;92.00;;;;;;5027893;28;20439;-74
2021/11/02 10:01:04;;;;;;;11.93;7.00;;;18.50;92.70;;;;;;5031120;28;20436;-74
2021/11/02 10:04:10;;;;;;;7.00;5.70;;;18.50;93.00;;;;;;5033011;28;20476;-74
2021/11/02 10:07:17;;;;;;;11.60;6.27;;;18.10;93.10;;;;;;5027116;28;20470;-74
2021/11/02 10:09:59;;;;;;;13.30;6.20;;;18.20;93.10;;;;;;5025254;28;20447;-73
2021/11/02 10:12:37;;;;;;;8.80;6.00;;;17.60;94.20;;;;;;5026428;28;20537;-74
2021/11/02 10:15:09;;;;;;;12.70;6.90;;;17.60;94.60;;;;;;5028733;28;20912;-76
2021/11/02 10:18:09;;;;;;;10.83;6.17;;;17.40;95.80;;;;;;5028656;28;20447;-73
2021/11/02 10:21:19;;;;;;;12.57;6.77;;;17.40;95.90;;;;;;5027149;28;20442;-73
2021/11/02 10:24:22;;;;;;;9.33;6.53;;;17.20;96.30;;;;;;5014478;28;20466;-72
2021/11/02 10:27:12;;;;;;;11.07;6.50;;;16.70;97.00;;;;;;5031264;28;20478;-72
2021/11/02 10:30:19;;;;;;;7.63;5.78;;;16.50;97.90;;;;;;5040663;28;20246;-73
2021/11/02 10:32:48;;;;;;;9.98;6.22;;;15.90;99.30;;;;;;5038189;28;20224;-71
2021/11/02 10:35:21;;;;;;;13.50;7.00;;;15.70;99.90;;;;;;5038529;28;20211;-72
2021/11/02 10:38:01;;;;;;;10.60;7.75;;;15.70;99.90;;;;;;5037620;28;20258;-72
2021/11/02 10:40:39;;;;;;;12.32;6.60;;;15.50;99.90;;;;;;5037761;28;20212;-71
2021/11/02 10:43:39;;;;;;;16.70;7.85;;;15.40;99.90;;;;;;5038517;28;20275;-72
2021/11/02 10:46:10;;;;;;;8.27;6.25;;;15.10;99.90;;;;;;5040116;28;20283;-71
2021/11/02 10:48:43;;;;;;;10.00;5.93;;;14.90;99.90;;;;;;5037003;28;20204;-71
2021/11/02 10:51:24;;;;;;;8.07;6.70;;;14.90;99.90;;;;;;5035090;28;20686;-72
2021/11/02 10:54:01;;;;;;;8.52;5.38;;;15.10;99.90;;;;;;5033879;28;20220;-73
2021/11/02 10:56:51;;;;;;;10.65;6.50;;;14.80;99.90;;;;;;5033508;28;20555;-73
2021/11/02 10:59:22;;;;;;;13.07;6.63;;;14.60;99.90;;;;;;5032140;28;20196;-73
2021/11/02 11:01:55;;;;;;;10.45;6.00;;;14.50;99.90;;;;;;5032778;28;20231;-73
2021/11/02 11:04:24;;;;;;;11.23;6.05;;;14.20;99.90;;;;;;5032864;28;20207;-73
2021/11/02 11:06:58;;;;;;;12.50;5.57;;;14.20;99.90;;;;;;5031066;28;20230;-73
2021/11/02 11:09:29;;;;;;;7.88;5.60;;;14.30;99.90;;;;;;5033009;28;20253;-73
2021/11/02 11:12:02;;;;;;;8.00;5.88;;;14.50;99.90;;;;;;5036604;28;20196;-73
2021/11/02 11:14:31;;;;;;;8.80;5.85;;;14.70;99.90;;;;;;5035696;28;20212;-73
2021/11/02 11:17:01;;;;;;;13.52;6.32;;;14.50;99.90;;;;;;5034328;28;20212;-72
2021/11/02 11:19:30;;;;;;;7.40;4.88;;;14.60;99.90;;;;;;5036645;28;20230;-73
2021/11/02 11:21:59;;;;;;;12.90;5.00;;;14.50;99.90;;;;;;5034966;28;20220;-73
2021/11/02 11:24:33;;;;;;;10.38;5.75;;;14.40;99.90;;;;;;5036700;28;20200;-72
2021/11/02 11:27:05;;;;;;;13.25;5.45;;;14.40;99.90;;;;;;5035092;28;20215;-72
2021/11/02 11:29:36;;;;;;;10.27;5.47;;;14.20;99.90;;;;;;5031666;28;20607;-73
2021/11/02 11:32:07;;;;;;;11.10;4.90;;;14.20;99.90;;;;;;5039525;28;20220;-73
2021/11/02 11:34:36;;;;;;;15.98;7.22;;;14.10;99.90;;;;;;5037505;28;20200;-73
2021/11/02 11:37:06;;;;;;;7.05;4.65;;;14.10;99.90;;;;;;5034726;28;20651;-73
2021/11/02 11:39:34;;;;;;;6.55;4.75;;;14.00;99.90;;;;;;5035452;28;20199;-72
2021/11/02 11:42:02;;;;;;;6.65;4.50;;;13.80;99.90;;;;;;5036079;28;20589;-73
2021/11/02 11:44:31;;;;;;;6.22;4.68;;;13.70;99.90;;;;;;5036676;28;20239;-72
2021/11/02 11:47:07;;;;;;;8.18;4.28;;;13.60;99.90;;;;;;5034346;28;20239;-73
2021/11/02 11:49:36;;;;;;;5.72;4.50;;;13.70;99.90;;;;;;5037724;28;20199;-73
2021/11/02 11:52:06;;;;;;;6.22;4.20;;;13.70;99.90;;;;;;5035645;28;20224;-73
2021/11/02 11:54:46;;;;;;;6.88;4.88;;;13.80;99.90;;;;;;5038086;28;20203;-73
2021/11/02 11:57:15;;;;;;;6.00;3.38;;;13.80;99.90;;;;;;5036800;28;20207;-73
2021/11/02 11:59:46;;;;;;;12.55;4.30;;;13.70;99.90;;;;;;5042192;28;20654;-72
2021/11/02 12:02:26;;;;;;;8.55;4.20;;;13.70;99.90;;;;;;5035100;28;20227;-73
2021/11/02 12:04:56;;;;;;;9.43;4.07;;;13.90;99.90;;;;;;5039591;28;20283;-73
2021/11/02 12:07:34;;;;;;;4.88;3.88;;;13.80;99.90;;;;;;5035172;28;20231;-74
2021/11/02 12:10:04;;;;;;;6.75;4.28;;;14.00;99.90;;;;;;5036366;28;20240;-72
2021/11/02 12:12:34;;;;;;;11.25;5.93;;;14.00;99.90;;;;;;5043447;28;20314;-73
2021/11/02 12:15:08;;;;;;;9.52;4.75;;;13.70;99.90;;;;;;5038592;28;20196;-74
2021/11/02 12:17:42;;;;;;;10.75;4.68;;;13.60;99.90;;;;;;5036018;28;20597;-73
2021/11/02 12:20:12;;;;;;;7.38;4.05;;;13.80;99.90;;;;;;5034520;28;20310;-72
2021/11/02 12:22:53;;;;;;;4.57;4.15;;;13.80;99.90;;;;;;5038383;28;20266;-72
2021/11/02 12:25:26;;;;;;;5.10;4.60;;;13.80;99.90;;;;;;5042921;28;20215;-72
2021/11/02 12:27:56;;;;;;;5.60;5.07;;;13.70;99.90;;;;;;5033813;28;20639;-73
2021/11/02 12:30:24;;;;;;;7.22;4.63;;;13.70;99.90;;;;;;5029276;28;20200;-73
2021/11/02 12:32:56;;;;;;;10.13;5.45;;;13.60;99.90;;;;;;5037714;28;20575;-73
2021/11/02 12:35:45;;;;;;;12.27;5.38;;;13.60;99.90;;;;;;5035459;28;20655;-73
2021/11/02 12:38:13;;;;;;;5.90;5.28;;;13.60;99.90;;;;;;5030912;28;20209;-72
2021/11/02 12:40:44;;;;;;;8.80;6.70;;;13.70;99.90;;;;;;5036261;28;20306;-73
2021/11/02 12:43:23;;;;;;;8.00;5.57;;;13.80;99.90;;;;;;5033143;28;20321;-72
2021/11/02 12:45:51;;;;;;;8.00;7.30;;;14.10;99.90;;;;;;5033206;28;20262;-73
2021/11/02 12:48:21;;;;;;;9.45;6.80;;;14.10;99.90;;;;;;5034027;28;20248;-74
2021/11/02 12:50:50;;;;;;;7.50;6.35;;;13.90;99.90;;;;;;5034480;28;20205;-73
2021/11/02 12:53:18;;;;;;;9.00;8.10;;;13.60;99.90;;;;;;5033606;28;20242;-72
2021/11/02 12:55:46;;;;;;;9.63;7.53;;;13.60;99.90;;;;;;5042036;28;20227;-73
2021/11/02 12:58:19;;;;;;;8.20;7.40;;;13.70;99.90;;;;;;5033858;28;20289;-74
2021/11/02 13:00:52;;;;;;;10.52;7.55;;;13.50;99.90;;;;;;5041568;28;20207;-72
2021/11/02 13:03:27;;;;;;;8.60;7.40;;;13.60;99.90;;;;;;5033887;28;20311;-72
2021/11/02 13:05:57;;;;;;;7.05;6.45;;;13.60;99.90;;;;;;5032938;28;20207;-73
2021/11/02 13:08:35;;;;;;;8.32;7.53;;;13.50;99.90;;;;;;5029700;28;20208;-73
2021/11/02 13:11:08;;;;;;;8.85;7.03;;;13.60;99.90;;;;;;5026823;28;20203;-73
2021/11/02 13:13:58;;;;;;;9.38;8.32;;;13.80;99.90;;;;;;5031441;28;20216;-73
2021/11/02 13:16:26;;;;;;;9.48;8.57;;;13.70;99.90;;;;;;5034086;28;20212;-74
2021/11/02 13:18:55;;;;;;;10.10;8.80;;;13.60;99.90;;;;;;5034500;28;20217;-73
2021/11/02 13:21:29;;;;;;;10.68;9.77;;;13.60;99.90;;;;;;5033182;28;20203;-73
2021/11/02 13:24:03;;;;;;;10.05;9.15;;;13.50;99.90;;;;;;5040469;28;20320;-73
2021/11/02 13:26:32;;;;;;;9.70;8.80;;;13.30;99.90;;;;;;5030653;28;20222;-73
2021/11/02 13:29:12;;;;;;;11.60;9.82;;;13.30;99.90;;;;;;5031617;28;20206;-73
2021/11/02 13:31:40;;;;;;;14.40;8.77;;;13.30;99.90;;;;;;5033637;28;20289;-74
2021/11/02 13:34:11;;;;;;;11.27;9.40;;;13.30;99.90;;;;;;5033775;28;20216;-73
2021/11/02 13:36:38;;;;;;;10.77;9.68;;;13.20;99.90;;;;;;5036138;28;20203;-73
2021/11/02 13:39:08;;;;;;;10.23;9.23;;;13.10;99.90;;;;;;5033007;28;20234;-73
2021/11/02 13:41:38;;;;;;;10.57;9.63;;;13.00;99.90;;;;;;5027420;28;20211;-73
2021/11/02 13:44:08;;;;;;;11.88;9.98;;;12.90;99.90;;;;;;5033437;28;20205;-74
2021/11/02 13:46:38;;;;;;;12.52;9.60;;;12.90;99.90;;;;;;5032740;28;20223;-74
2021/11/02 13:49:06;;;;;;;11.32;10.23;;;12.90;99.90;;;;;;5032965;28;20692;-74
2021/11/02 13:51:36;;;;;;;11.63;10.38;;;12.80;99.90;;;;;;5035864;28;20277;-74
2021/11/02 13:54:04;;;;;;;11.43;10.32;;;12.70;99.90;;;;;;5033069;28;20196;-73
2021/11/02 13:56:35;;;;;;;13.23;11.85;;;12.80;99.90;;;;;;5028056;28;20223;-73
2021/11/02 13:59:05;;;;;;;15.63;13.10;;;12.70;99.90;;;;;;5025829;28;20721;-73
2021/11/02 14:01:38;;;;;;;13.48;10.93;;;12.60;99.90;;;;;;5029285;28;20244;-73
2021/11/02 14:04:10;;;;;;;12.15;11.05;;;12.70;99.90;;;;;;5032405;28;20218;-73
2021/11/02 14:06:42;;;;;;;14.52;13.15;;;12.80;99.90;;;;;;5027315;28;20262;-73
2021/11/02 14:09:12;;;;;;;15.70;12.77;;;12.80;99.90;;;;;;5030132;28;20243;-73
2021/11/02 14:11:40;;;;;;;12.70;11.40;;;12.70;99.90;;;;;;5034528;28;20695;-73
2021/11/02 14:14:10;;;;;;;12.65;10.40;;;12.80;99.90;;;;;;5032847;28;20213;-73
2021/11/02 14:16:40;;;;;;;12.05;10.90;;;12.90;99.90;;;;;;5028579;28;20203;-72
2021/11/02 14:19:36;;;;;;;14.20;11.35;;;12.90;99.90;;;;;;5030731;28;20211;-72
2021/11/02 14:22:06;;;;;;;13.55;12.35;;;13.00;99.90;;;;;;5026526;28;20234;-72
2021/11/02 14:24:35;;;;;;;14.38;11.00;;;12.90;99.90;;;;;;5028112;28;20676;-72
2021/11/02 14:27:04;;;;;;;16.55;9.18;;;12.90;99.90;;;;;;5030643;28;20211;-73
2021/11/02 14:29:51;;;;;;;19.40;12.23;;;12.90;99.90;;;;;;5040917;28;20199;-74
2021/11/02 14:32:52;;;;;;;11.27;10.32;;;13.10;99.90;;;;;;5033139;28;20658;-73
2021/11/02 14:35:46;;;;;;;11.05;10.05;;;13.10;99.90;;;;;;5028329;28;20226;-72
2021/11/02 14:38:16;;;;;;;18.17;11.18;;;13.10;99.90;;;;;;5023330;28;20526;-72
2021/11/02 14:40:45;;;;;;;15.40;12.02;;;13.30;99.90;;;;;;5030600;28;20238;-73
2021/11/02 14:43:33;;;;;;;14.02;12.60;;;13.40;99.90;;;;;;5028307;28;20745;-74
2021/11/02 14:46:04;;;;;;;15.73;12.10;;;13.30;99.90;;;;;;5028630;28;20231;-74
2021/11/02 14:48:48;;;;;;;13.30;12.20;;;13.10;99.90;;;;;;5028024;28;20231;-73
2021/11/02 14:51:28;;;;;;;13.07;11.73;;;13.10;99.90;;;;;;5028011;28;20280;-73
2021/11/02 14:54:21;;;;;;;10.70;9.80;;;13.10;99.90;;;;;;5030328;28;20585;-72
2021/11/02 14:56:48;;;;;;;16.13;12.07;;;13.20;99.90;;;;;;5031867;28;20203;-73
2021/11/02 14:59:21;;;;;;;13.25;12.05;;;13.20;99.90;;;;;;5035467;28;20200;-74
2021/11/02 15:02:15;;;;;;;10.80;9.40;;;13.10;99.90;;;;;;5034863;28;20232;-73
2021/11/02 15:04:42;;;;;;;12.32;11.13;;;13.20;99.90;;;;;;5035498;28;20226;-74
2021/11/02 15:07:10;;;;;;;10.75;9.85;;;13.30;99.90;;;;;;5032854;28;20905;-75
2021/11/02 15:09:40;;;;;;;11.80;10.60;;;13.30;99.90;;;;;;5036070;28;20529;-73
2021/11/02 15:12:16;;;;;;;11.48;10.30;;;13.40;99.90;;;;;;5032338;28;20231;-72
2021/11/02 15:14:44;;;;;;;13.32;11.65;;;13.40;99.90;;;;;;5032337;28;20617;-73
2021/11/02 15:17:19;;;;;;;10.50;9.50;;;13.30;99.90;;;;;;5032369;28;20204;-73
2021/11/02 15:19:47;;;;;;;11.13;10.02;;;13.30;99.90;;;;;;5033075;28;20311;-73
2021/11/02 15:22:30;;;;;;;12.95;11.65;;;13.30;99.90;;;;;;5031770;28;20596;-74
2021/11/02 15:25:01;;;;;;;16.65;13.00;;;13.30;99.90;;;;;;5033547;28;20214;-74
2021/11/02 15:27:33;;;;;;;14.02;11.65;;;13.30;99.90;;;;;;5028823;28;20227;-74
2021/11/02 15:30:04;;;;;;;14.77;12.80;;;13.30;99.90;;;;;;5034699;28;20211;-75
2021/11/02 15:32:38;;;;;;;14.30;12.95;;;13.20;99.90;;;;;;5035217;28;20259;-74
2021/11/02 15:35:07;;;;;;;13.65;11.70;;;13.20;99.90;;;;;;5034893;28;20275;-75
2021/11/02 15:37:37;;;;;;;12.95;11.80;;;13.10;99.90;;;;;;5035883;28;20205;-73
2021/11/02 15:40:12;;;;;;;12.10;11.00;;;13.10;99.90;;;;;;5035387;28;20207;-73
2021/11/02 15:42:42;;;;;;;12.65;11.50;;;13.00;99.90;;;;;;5038890;28;20235;-74
2021/11/02 15:45:11;;;;;;;14.93;13.30;;;13.00;99.90;;;;;;5034852;28;20291;-73
2021/11/02 15:47:41;;;;;;;13.13;11.80;;;13.00;99.90;;;;;;5036172;28;20227;-72
2021/11/02 15:50:16;;;;;;;14.18;12.80;;;12.90;99.90;;;;;;5031603;28;20240;-74
2021/11/02 15:52:43;;;;;;;17.55;13.80;;;13.00;99.90;;;;;;5031711;28;20281;-73
2021/11/02 15:55:21;;;;;;;15.57;13.82;;;13.00;99.90;;;;;;5034645;28;20207;-71
2021/11/02 15:57:53;;;;;;;16.23;14.73;;;13.00;99.90;;;;;;5034339;28;20231;-74
2021/11/02 16:00:24;;;;;;;12.88;11.50;;;13.00;99.90;;;;;;5033369;28;20198;-74
2021/11/02 16:02:51;;;;;;;16.05;14.23;;;13.10;99.90;;;;;;5030026;28;20230;-74
2021/11/02 16:05:20;;;;;;;18.33;13.90;;;13.00;99.90;;;;;;5033945;28;20209;-74
2021/11/02 16:07:47;;;;;;;15.73;14.23;;;12.90;99.90;;;;;;5036341;28;20223;-73
2021/11/02 16:10:27;;;;;;;14.65;12.90;;;12.90;99.90;;;;;;5036386;28;20286;-74
2021/11/02 16:12:55;;;;;;;12.82;11.73;;;12.90;99.90;;;;;;5034081;28;20306;-72
2021/11/02 16:15:26;;;;;;;14.55;13.07;;;12.90;99.90;;;;;;5035327;28;20303;-73
2021/11/02 16:17:55;;;;;;;14.52;13.00;;;12.90;99.90;;;;;;5030545;28;20669;-72
2021/11/02 16:20:27;;;;;;;13.43;12.10;;;12.90;99.90;;;;;;5040025;28;20677;-72
2021/11/02 16:22:59;;;;;;;14.93;11.85;;;12.90;99.90;;;;;;5022784;28;20308;-72
2021/11/02 16:25:31;;;;;;;14.77;13.20;;;12.80;99.90;;;;;;5042715;28;20209;-73
2021/11/02 16:28:02;;;;;;;12.10;11.00;;;12.90;99.90;;;;;;5022156;28;20227;-73
2021/11/02 16:30:33;;;;;;;15.38;13.77;;;12.80;99.90;;;;;;5027837;28;20196;-73
2021/11/02 16:33:01;;;;;;;18.58;16.67;;;12.80;99.90;;;;;;5031573;28;20232;-73
2021/11/02 16:35:42;;;;;;;18.17;16.27;;;12.60;99.90;;;;;;5022483;28;20220;-72
2021/11/02 16:38:24;;;;;;;27.85;17.75;;;12.50;99.90;;;;;;5026683;28;20654;-73
2021/11/02 16:40:55;;;;;;;15.18;13.57;;;12.50;99.90;;;;;;5024624;28;20324;-73
2021/11/02 16:43:35;;;;;;;16.27;14.68;;;12.50;99.90;;;;;;5029714;28;20231;-73
2021/11/02 16:46:05;;;;;;;17.60;15.80;;;12.50;99.90;;;;;;5037384;28;20456;-73
2021/11/02 16:48:41;;;;;;;15.02;13.45;;;12.40;99.90;;;;;;5034569;28;20208;-73
2021/11/02 16:51:09;;;;;;;14.32;12.88;;;12.40;99.90;;;;;;5033304;28;20215;-73
2021/11/02 16:53:36;;;;;;;13.90;12.45;;;12.40;99.90;;;;;;5030621;28;20285;-73
2021/11/02 16:56:15;;;;;;;15.02;13.32;;;12.40;99.90;;;;;;5033610;28;20230;-73
2021/11/02 16:58:48;;;;;;;19.42;14.77;;;12.30;99.90;;;;;;5032712;28;20700;-72
2021/11/02 17:01:34;;;;;;;21.33;12.63;;;12.30;99.90;;;;;;5034155;28;20234;-72
2021/11/02 17:04:13;;;;;;;15.30;13.70;;;12.30;99.90;;;;;;5034117;28;20226;-71
2021/11/02 17:06:41;;;;;;;19.80;13.85;;;12.30;99.90;;;;;;5033755;28;20207;-72
2021/11/02 17:09:16;;;;;;;22.42;15.45;;;12.20;99.90;;;;;;5035355;28;20306;-72
2021/11/02 17:11:55;;;;;;;20.35;14.75;;;12.10;99.90;;;;;;5034008;28;20199;-72
2021/11/02 17:14:23;;;;;;;15.75;14.25;;;12.10;99.90;;;;;;5031864;28;20217;-72
2021/11/02 17:16:57;;;;;;;14.85;13.45;;;12.10;99.90;;;;;;5033765;28;20214;-73
2021/11/02 17:19:25;;;;;;;17.67;14.40;;;12.10;99.90;;;;;;5037556;28;20236;-73
2021/11/02 17:21:55;;;;;;;20.88;18.33;;;12.10;99.90;;;;;;5029821;28;20298;-73
2021/11/02 17:24:23;;;;;;;17.48;15.35;;;12.00;99.90;;;;;;5036163;28;20308;-73
2021/11/02 17:26:52;;;;;;;16.90;15.18;;;11.90;99.90;;;;;;5033488;28;20203;-73
2021/11/02 17:29:19;;;;;;;25.08;18.88;;;11.90;99.90;;;;;;5036128;28;20298;-72
2021/11/02 17:31:48;;;;;;;22.40;19.50;;;11.90;99.90;;;;;;5027509;28;20240;-72
2021/11/02 17:34:22;;;;;;;36.67;26.27;;;11.90;99.90;;;;;;5030314;28;20199;-71
2021/11/02 17:36:54;;;;;;;59.95;43.30;;;11.90;99.90;;;;;;5026972;28;20243;-71
2021/11/02 17:39:22;;;;;;;43.55;30.05;;;12.00;99.90;;;;;;5037533;28;20206;-72
2021/11/02 17:41:52;;;;;;;38.10;25.05;;;11.80;99.90;;;;;;5033987;28;20213;-72